createdAt,value
2019-02-07T00:00:27.962Z,95.87
2019-02-07T00:02:57.489Z,94.60
2019-02-07T00:05:25.259Z,94.77
2019-02-07T00:07:53.828Z,95.51
2019-02-07T00:10:21.296Z,93.59
2019-02-07T00:12:49.543Z,95.34
2019-02-07T00:15:16.671Z,95.76
2019-02-07T00:17:44.094Z,95.35
2019-02-07T00:20:11.363Z,95.07
2019-02-07T00:22:39.338Z,95.45
2019-02-07T00:25:07.747Z,95.68
2019-02-07T00:27:34.819Z,95.14
2019-02-07T00:30:01.983Z,95.96
2019-02-07T00:32:29.650Z,95.16
2019-02-07T00:34:56.717Z,96.54
2019-02-07T00:37:23.766Z,96.15
2019-02-07T00:39:51.582Z,96.08
2019-02-07T00:42:19.046Z,96.36
2019-02-07T00:44:52.067Z,96.70
2019-02-07T00:47:15.942Z,96.92
2019-02-07T00:49:43.687Z,96.75
2019-02-07T00:52:11.756Z,96.97
2019-02-07T00:54:39.094Z,95.65
2019-02-07T00:57:06.445Z,95.42
2019-02-07T00:59:33.531Z,95.80
2019-02-07T01:02:00.616Z,96.11
2019-02-07T01:04:27.668Z,94.76
2019-02-07T01:06:55.046Z,94.07
2019-02-07T01:09:22.215Z,94.39
2019-02-07T01:11:49.379Z,95.47
2019-02-07T01:14:16.958Z,95.53
2019-02-07T01:16:44.263Z,95.19
2019-02-07T01:19:11.715Z,94.98
2019-02-07T01:21:39.479Z,95.79
2019-02-07T01:24:06.946Z,95.88
2019-02-07T01:26:34.321Z,94.95
2019-02-07T01:29:01.393Z,94.99
2019-02-07T01:31:28.500Z,95.63
2019-02-07T01:33:55.571Z,95.85
2019-02-07T01:36:22.639Z,94.74
2019-02-07T01:38:50.860Z,95.49
2019-02-07T01:41:18.316Z,96.02
2019-02-07T01:43:45.615Z,95.60
2019-02-07T01:46:14.459Z,95.75
2019-02-07T01:48:41.627Z,96.19
2019-02-07T01:51:08.708Z,94.98
2019-02-07T01:53:35.763Z,96.18
2019-02-07T01:56:03.042Z,94.95
2019-02-07T01:58:30.514Z,94.50
2019-02-07T02:00:57.865Z,95.34
2019-02-07T02:03:24.912Z,96.01
2019-02-07T02:05:52.572Z,96.21
2019-02-07T02:08:20.543Z,96.29
2019-02-07T02:10:47.690Z,96.47
2019-02-07T02:13:14.891Z,96.55
2019-02-07T02:15:42.540Z,96.76
2019-02-07T02:18:09.611Z,96.08
2019-02-07T02:20:37.911Z,94.83
2019-02-07T02:23:04.966Z,95.02
2019-02-07T02:25:32.211Z,96.06
2019-02-07T02:28:00.413Z,96.41
2019-02-07T02:30:30.143Z,95.42
2019-02-07T02:32:57.476Z,96.11
2019-02-07T02:35:27.554Z,95.10
2019-02-07T02:37:54.595Z,95.22
2019-02-07T02:40:22.195Z,96.23
2019-02-07T02:42:49.866Z,95.44
2019-02-07T02:45:17.720Z,96.19
2019-02-07T02:47:45.076Z,95.19
2019-02-07T02:50:15.351Z,95.64
2019-02-07T02:52:42.755Z,96.01
2019-02-07T02:55:11.038Z,97.06
2019-02-07T02:57:38.829Z,96.65
2019-02-07T03:00:14.074Z,95.83
2019-02-07T03:03:00.844Z,95.92
2019-02-07T03:05:57.071Z,95.02
2019-02-07T03:08:46.852Z,95.51
2019-02-07T03:11:32.219Z,95.50
2019-02-07T03:14:15.473Z,95.74
2019-02-07T03:17:05.239Z,95.31
2019-02-07T03:19:48.873Z,96.11
2019-02-07T03:22:41.554Z,95.58
2019-02-07T03:25:27.267Z,95.36
2019-02-07T03:28:12.795Z,95.20
2019-02-07T03:30:52.647Z,95.24
2019-02-07T03:33:32.553Z,94.86
2019-02-07T03:36:19.288Z,94.33
2019-02-07T03:39:05.489Z,95.68
2019-02-07T03:42:03.258Z,96.41
2019-02-07T03:44:50.274Z,96.12
2019-02-07T03:47:44.681Z,96.98
2019-02-07T03:50:40.684Z,96.14
2019-02-07T03:53:32.108Z,94.79
2019-02-07T03:56:18.817Z,95.64
2019-02-07T03:58:57.821Z,96.26
2019-02-07T04:01:45.914Z,95.10
2019-02-07T04:04:47.748Z,95.30
2019-02-07T04:07:36.019Z,95.63
2019-02-07T04:10:26.996Z,96.23
2019-02-07T04:13:15.607Z,96.65
2019-02-07T04:16:20.462Z,96.75
2019-02-07T04:19:01.329Z,96.43
2019-02-07T04:21:48.221Z,95.48
2019-02-07T04:24:37.657Z,95.09
2019-02-07T04:27:27.354Z,95.92
2019-02-07T04:30:12.822Z,96.09
2019-02-07T04:33:01.134Z,95.55
2019-02-07T04:35:41.830Z,94.74
2019-02-07T04:38:38.453Z,94.18
2019-02-07T04:41:19.811Z,94.59
2019-02-07T04:44:07.057Z,93.75
2019-02-07T04:46:52.437Z,95.04
2019-02-07T04:49:38.897Z,95.56
2019-02-07T04:52:27.589Z,94.25
2019-02-07T04:55:14.964Z,95.89
2019-02-07T04:57:55.378Z,96.02
2019-02-07T05:00:45.366Z,95.23
2019-02-07T05:03:32.236Z,93.03
2019-02-07T05:06:25.163Z,93.15
2019-02-07T05:09:24.112Z,94.03
2019-02-07T05:12:17.186Z,95.01
2019-02-07T05:15:05.230Z,95.32
2019-02-07T05:17:45.458Z,95.74
2019-02-07T05:20:39.421Z,95.56
2019-02-07T05:23:38.560Z,95.30
2019-02-07T05:26:24.048Z,93.50
2019-02-07T05:29:09.511Z,94.74
2019-02-07T05:31:52.812Z,95.85
2019-02-07T05:34:51.920Z,95.41
2019-02-07T05:37:44.799Z,95.36
2019-02-07T05:40:20.323Z,95.15
2019-02-07T05:43:06.751Z,94.39
2019-02-07T05:45:46.968Z,94.06
2019-02-07T05:48:33.420Z,94.05
2019-02-07T05:51:16.631Z,94.68
2019-02-07T05:54:06.567Z,94.24
2019-02-07T05:56:52.422Z,93.99
2019-02-07T05:59:36.609Z,93.31
2019-02-07T06:02:22.098Z,94.36
2019-02-07T06:05:00.910Z,94.00
2019-02-07T06:07:46.060Z,93.56
2019-02-07T06:10:41.570Z,94.11
2019-02-07T06:13:44.930Z,95.01
2019-02-07T06:16:30.619Z,94.90
2019-02-07T06:19:10.514Z,92.96
2019-02-07T06:22:09.168Z,92.86
2019-02-07T06:25:06.210Z,93.84
2019-02-07T06:27:55.547Z,93.27
2019-02-07T06:30:58.435Z,93.91
2019-02-07T06:33:50.839Z,93.48
2019-02-07T06:36:41.993Z,93.84
2019-02-07T06:39:22.595Z,93.39
2019-02-07T06:42:08.237Z,92.59
2019-02-07T06:44:53.777Z,92.83
2019-02-07T06:47:34.063Z,92.62
2019-02-07T06:50:19.244Z,93.44
2019-02-07T06:52:58.672Z,93.01
2019-02-07T06:55:39.983Z,93.33
2019-02-07T06:58:29.666Z,93.92
2019-02-07T07:01:17.068Z,94.11
2019-02-07T07:04:02.062Z,92.58
2019-02-07T07:06:48.750Z,92.17
2019-02-07T07:09:34.966Z,93.83
2019-02-07T07:12:14.198Z,94.28
2019-02-07T07:14:52.714Z,94.40
2019-02-07T07:17:39.527Z,93.50
2019-02-07T07:20:27.769Z,93.44
2019-02-07T07:23:24.199Z,92.82
2019-02-07T07:26:11.903Z,93.14
2019-02-07T07:28:49.117Z,94.11
2019-02-07T07:31:34.281Z,93.21
2019-02-07T07:34:24.374Z,92.94
2019-02-07T07:37:10.423Z,93.81
2019-02-07T07:39:57.657Z,92.69
2019-02-07T07:42:54.273Z,93.10
2019-02-07T07:45:59.488Z,92.75
2019-02-07T07:49:01.147Z,93.98
2019-02-07T07:51:53.855Z,93.75
2019-02-07T07:54:39.936Z,94.75
2019-02-07T07:57:46.327Z,94.19
2019-02-07T08:00:39.277Z,92.62
2019-02-07T08:03:38.284Z,91.97
2019-02-07T08:06:19.875Z,92.42
2019-02-07T08:09:16.880Z,92.69
2019-02-07T08:11:59.437Z,92.36
2019-02-07T08:14:46.151Z,93.93
2019-02-07T08:17:30.903Z,93.77
2019-02-07T08:20:22.380Z,93.44
2019-02-07T08:22:58.674Z,93.30
2019-02-07T08:25:58.867Z,91.81
2019-02-07T08:28:45.503Z,92.93
2019-02-07T08:31:24.460Z,92.33
2019-02-07T08:34:17.722Z,92.07
2019-02-07T08:37:00.154Z,92.19
2019-02-07T08:39:50.015Z,90.78
2019-02-07T08:42:39.754Z,91.11
2019-02-07T08:45:40.215Z,91.21
2019-02-07T08:48:30.255Z,90.00
2019-02-07T08:51:13.999Z,89.21
2019-02-07T08:54:03.522Z,90.44
2019-02-07T08:56:49.052Z,89.73
2019-02-07T08:59:41.548Z,89.92
2019-02-07T09:02:27.422Z,90.49
2019-02-07T09:05:27.206Z,89.85
2019-02-07T09:08:35.130Z,89.20
2019-02-07T09:11:40.180Z,89.15
2019-02-07T09:14:40.112Z,88.08
2019-02-07T09:17:44.677Z,89.17
2019-02-07T09:20:37.529Z,89.46
2019-02-07T09:23:34.540Z,88.85
2019-02-07T09:26:20.138Z,89.86
2019-02-07T09:29:13.063Z,88.88
2019-02-07T09:31:58.580Z,89.65
2019-02-07T09:34:49.475Z,89.63
2019-02-07T09:37:54.319Z,89.81
2019-02-07T09:40:40.035Z,90.47
2019-02-07T09:43:29.906Z,92.42
2019-02-07T09:46:23.641Z,91.42
2019-02-07T09:49:10.331Z,89.68
2019-02-07T09:52:00.429Z,91.27
2019-02-07T09:54:45.661Z,92.48
2019-02-07T09:57:35.694Z,90.69
2019-02-07T10:00:12.120Z,90.67
2019-02-07T10:03:05.260Z,91.97
2019-02-07T10:05:50.951Z,91.69
2019-02-07T10:08:55.515Z,91.29
2019-02-07T10:11:40.854Z,91.70
2019-02-07T10:14:36.874Z,92.50
2019-02-07T10:17:27.952Z,91.92
2019-02-07T10:20:13.551Z,90.72
2019-02-07T10:23:01.310Z,91.91
2019-02-07T10:25:51.988Z,91.08
2019-02-07T10:28:39.713Z,91.42
2019-02-07T10:31:16.959Z,90.78
2019-02-07T10:34:02.921Z,91.14
2019-02-07T10:36:48.694Z,90.11
2019-02-07T10:39:34.383Z,89.49
2019-02-07T10:42:21.248Z,89.85
2019-02-07T10:45:07.213Z,90.03
2019-02-07T10:47:52.303Z,90.27
2019-02-07T10:50:39.597Z,89.62
2019-02-07T10:53:21.007Z,89.65
2019-02-07T10:56:06.561Z,91.15
2019-02-07T10:58:52.253Z,90.59
2019-02-07T11:01:41.927Z,89.69
2019-02-07T11:04:37.737Z,90.29
2019-02-07T11:07:40.817Z,89.51
2019-02-07T11:10:33.075Z,88.63
2019-02-07T11:13:38.571Z,88.29
2019-02-07T11:16:26.313Z,89.79
2019-02-07T11:19:21.304Z,90.13
2019-02-07T11:21:54.737Z,89.01
2019-02-07T11:24:41.911Z,89.38
2019-02-07T11:27:27.420Z,90.80
2019-02-07T11:30:33.596Z,90.28
2019-02-07T11:33:19.701Z,89.59
2019-02-07T11:36:09.932Z,89.11
2019-02-07T11:38:59.579Z,89.68
2019-02-07T11:41:41.777Z,89.97
2019-02-07T11:44:27.405Z,89.10
2019-02-07T11:47:10.402Z,90.07
2019-02-07T11:49:49.191Z,90.19
2019-02-07T11:52:41.239Z,90.27
2019-02-07T11:55:16.206Z,91.10
2019-02-07T11:58:03.875Z,91.33
2019-02-07T12:01:01.312Z,90.62
2019-02-07T12:03:51.251Z,90.63
2019-02-07T12:06:32.666Z,89.42
2019-02-07T12:09:32.400Z,90.49
2019-02-07T12:12:28.205Z,90.62
2019-02-07T12:15:24.449Z,91.21
2019-02-07T12:18:11.965Z,91.54
2019-02-07T12:21:02.458Z,90.94
2019-02-07T12:23:52.543Z,88.90
2019-02-07T12:26:32.212Z,89.66
2019-02-07T12:29:22.072Z,89.23
2019-02-07T12:32:12.468Z,89.36
2019-02-07T12:34:52.519Z,88.23
2019-02-07T12:37:40.775Z,87.80
2019-02-07T12:40:26.337Z,87.57
2019-02-07T12:43:27.841Z,86.49
2019-02-07T12:46:16.556Z,86.18
2019-02-07T12:49:02.447Z,85.85
2019-02-07T12:52:02.072Z,86.86
2019-02-07T12:54:44.875Z,85.69
2019-02-07T12:57:34.878Z,83.18
2019-02-07T13:00:21.871Z,83.52
2019-02-07T13:03:21.636Z,84.63
2019-02-07T13:06:17.174Z,83.63
2019-02-07T13:08:51.633Z,84.01
2019-02-07T13:11:37.967Z,83.62
2019-02-07T13:14:37.124Z,83.51
2019-02-07T13:17:22.997Z,82.72
2019-02-07T13:20:00.469Z,82.35
2019-02-07T13:22:44.409Z,83.12
2019-02-07T13:25:25.227Z,82.65
2019-02-07T13:28:07.014Z,82.65
2019-02-07T13:30:53.823Z,82.65
2019-02-07T13:33:43.403Z,80.97
2019-02-07T13:36:31.328Z,81.12
2019-02-07T13:39:32.851Z,81.12
2019-02-07T13:42:35.079Z,81.12
2019-02-07T13:45:22.091Z,78.95
2019-02-07T13:48:18.778Z,77.66
2019-02-07T13:51:04.616Z,77.67
2019-02-07T13:53:51.295Z,77.67
2019-02-07T13:56:38.009Z,77.90
2019-02-07T13:59:28.361Z,77.90
2019-02-07T14:02:15.798Z,78.35
2019-02-07T14:05:05.722Z,77.12
2019-02-07T14:08:01.206Z,76.90
2019-02-07T14:11:00.465Z,76.90
2019-02-07T14:13:53.103Z,75.53
2019-02-07T14:16:39.059Z,74.41
2019-02-07T14:19:25.476Z,74.41
2019-02-07T14:22:30.907Z,74.41
2019-02-07T14:25:20.088Z,72.31
2019-02-07T14:28:11.376Z,71.49
2019-02-07T14:31:08.218Z,70.08
2019-02-07T14:33:54.445Z,70.33
2019-02-07T14:36:45.621Z,70.11
2019-02-07T14:39:33.084Z,70.68
2019-02-07T14:42:08.322Z,71.35
2019-02-07T14:45:07.346Z,71.50
2019-02-07T14:47:34.410Z,70.50
2019-02-07T14:50:01.511Z,70.50
2019-02-07T14:52:28.607Z,70.63
2019-02-07T14:54:57.522Z,70.63
2019-02-07T14:57:26.442Z,69.13
2019-02-07T14:59:53.685Z,69.13
2019-02-07T15:02:24.185Z,69.13
2019-02-07T15:04:51.267Z,69.13
2019-02-07T15:07:18.574Z,69.13
2019-02-07T15:09:46.030Z,69.13
2019-02-07T15:12:14.676Z,69.13
2019-02-07T15:14:42.998Z,69.13
2019-02-07T15:17:10.888Z,69.13
2019-02-07T15:19:38.087Z,69.13
2019-02-07T15:22:06.162Z,74.93
2019-02-07T15:24:33.520Z,69.13
2019-02-07T15:27:00.660Z,69.13
2019-02-07T15:29:27.866Z,69.13
2019-02-07T15:31:54.977Z,69.13
2019-02-07T15:34:22.081Z,69.13
2019-02-07T15:36:51.072Z,69.13
2019-02-07T15:39:19.761Z,69.13
2019-02-07T15:41:48.056Z,69.13
2019-02-07T15:44:15.166Z,69.13
2019-02-07T15:46:42.353Z,69.13
2019-02-07T15:49:11.039Z,69.13
2019-02-07T15:51:38.356Z,69.13
2019-02-07T15:54:06.573Z,69.13
2019-02-07T15:56:34.830Z,69.13
2019-02-07T15:59:19.900Z,69.13
2019-02-07T16:01:59.029Z,69.13
2019-02-07T16:04:32.807Z,52.37
2019-02-07T16:07:00.197Z,69.13
2019-02-07T16:09:27.854Z,69.13
2019-02-07T16:11:55.359Z,73.19
2019-02-07T16:14:22.766Z,69.13
2019-02-07T16:16:49.875Z,69.13
2019-02-07T16:19:25.075Z,69.13
2019-02-07T16:21:52.513Z,69.13
2019-02-07T16:24:19.678Z,69.13
2019-02-07T16:26:47.219Z,69.13
2019-02-07T16:29:14.680Z,69.13
2019-02-07T16:31:43.982Z,69.13
2019-02-07T16:34:12.080Z,69.13
2019-02-07T16:36:39.992Z,69.13
2019-02-07T16:39:07.420Z,52.26
2019-02-07T16:41:35.614Z,69.13
2019-02-07T16:44:02.707Z,69.13
2019-02-07T16:46:29.890Z,69.13
2019-02-07T16:48:57.299Z,69.13
2019-02-07T16:51:27.116Z,69.13
2019-02-07T16:53:54.671Z,69.13
2019-02-07T16:56:22.129Z,69.13
2019-02-07T16:58:50.707Z,69.13
2019-02-07T17:01:18.783Z,69.13
2019-02-07T17:03:49.771Z,69.13
2019-02-07T17:06:18.512Z,69.13
2019-02-07T17:08:45.622Z,69.13
2019-02-07T17:11:14.816Z,69.13
2019-02-07T17:13:41.922Z,52.37
2019-02-07T17:16:09.198Z,100.00
